createdAt,value
2019-03-23T00:00:13.590Z,5.13
2019-03-23T00:03:19.534Z,10.13
2019-03-23T00:06:30.730Z,5.63
2019-03-23T00:09:29.190Z,8.93
2019-03-23T00:12:33.347Z,12.20
2019-03-23T00:15:37.753Z,5.20
2019-03-23T00:18:41.445Z,6.40
2019-03-23T00:21:45.200Z,9.03
2019-03-23T00:24:49.788Z,7.20
2019-03-23T00:27:54.192Z,9.43
2019-03-23T00:30:57.914Z,3.43
2019-03-23T00:34:01.622Z,7.63
2019-03-23T00:37:07.270Z,6.93
2019-03-23T00:40:12.767Z,6.90
2019-03-23T00:43:16.471Z,9.60
2019-03-23T00:46:20.644Z,7.33
2019-03-23T00:49:24.439Z,8.37
2019-03-23T00:52:28.562Z,10.17
2019-03-23T00:55:32.300Z,8.70
2019-03-23T00:58:36.006Z,6.10
2019-03-23T01:01:40.199Z,9.20
2019-03-23T01:04:44.655Z,16.17
2019-03-23T01:07:48.509Z,11.93
2019-03-23T01:10:52.991Z,16.50
2019-03-23T01:13:57.050Z,17.57
2019-03-23T01:17:02.486Z,17.77
2019-03-23T01:20:07.836Z,20.90
2019-03-23T01:23:11.824Z,17.40
2019-03-23T01:26:17.210Z,11.40
2019-03-23T01:29:20.962Z,17.30
2019-03-23T01:32:26.160Z,11.37
2019-03-23T01:35:29.876Z,14.57
2019-03-23T01:38:34.560Z,10.07
2019-03-23T01:41:38.303Z,20.30
2019-03-23T01:44:42.002Z,24.00
2019-03-23T01:47:45.719Z,25.30
2019-03-23T01:50:49.443Z,26.50
2019-03-23T01:53:53.503Z,49.00
2019-03-23T01:56:57.238Z,41.00
2019-03-23T02:00:01.330Z,61.90
2019-03-23T02:03:05.279Z,44.00
2019-03-23T02:06:09.007Z,56.80
2019-03-23T02:09:12.719Z,51.90
2019-03-23T02:12:16.761Z,61.13
2019-03-23T02:15:20.464Z,58.30
2019-03-23T02:18:24.558Z,65.13
2019-03-23T02:21:29.487Z,69.70
2019-03-23T02:24:33.525Z,66.63
2019-03-23T02:27:37.267Z,68.73
2019-03-23T02:30:41.733Z,78.50
2019-03-23T02:33:45.440Z,67.10
2019-03-23T02:36:50.045Z,65.77
2019-03-23T02:39:54.131Z,64.27
2019-03-23T02:42:59.629Z,63.47
2019-03-23T02:46:03.354Z,64.00
2019-03-23T02:49:07.066Z,65.37
2019-03-23T02:52:11.165Z,68.20
2019-03-23T02:55:14.863Z,93.73
2019-03-23T02:58:19.605Z,63.80
2019-03-23T03:01:24.198Z,64.43
2019-03-23T03:04:29.876Z,58.73
2019-03-23T03:07:41.790Z,71.53
2019-03-23T03:10:40.912Z,59.70
2019-03-23T03:13:44.642Z,81.00
2019-03-23T03:16:48.687Z,58.40
2019-03-23T03:19:53.109Z,74.10
2019-03-23T03:22:57.663Z,71.70
2019-03-23T03:26:02.929Z,78.00
2019-03-23T03:29:06.630Z,72.57
2019-03-23T03:32:10.360Z,74.53
2019-03-23T03:35:15.221Z,80.43
2019-03-23T03:38:19.699Z,88.70
2019-03-23T03:41:23.412Z,82.57
2019-03-23T03:44:27.121Z,86.43
2019-03-23T03:47:30.845Z,92.77
2019-03-23T03:50:34.552Z,101.57
2019-03-23T03:53:38.633Z,107.70
2019-03-23T03:56:43.410Z,115.80
2019-03-23T03:59:47.107Z,114.10
2019-03-23T04:02:51.626Z,108.73
2019-03-23T04:05:55.648Z,114.17
2019-03-23T04:09:00.558Z,110.07
2019-03-23T04:12:04.610Z,117.40
2019-03-23T04:15:09.254Z,102.47
2019-03-23T04:18:12.973Z,111.00
2019-03-23T04:21:16.738Z,97.17
2019-03-23T04:24:20.858Z,99.17
2019-03-23T04:27:24.588Z,105.03
2019-03-23T04:30:29.285Z,118.47
2019-03-23T04:33:33.854Z,117.60
2019-03-23T04:36:38.357Z,97.03
2019-03-23T04:39:42.062Z,132.97
2019-03-23T04:42:45.883Z,95.47
2019-03-23T04:45:50.006Z,103.57
2019-03-23T04:48:53.729Z,112.50
2019-03-23T04:51:58.472Z,120.77
2019-03-23T04:55:02.196Z,133.83
2019-03-23T04:58:06.394Z,124.33
2019-03-23T05:01:10.740Z,121.80
2019-03-23T05:04:15.249Z,140.10
2019-03-23T05:07:18.980Z,141.03
2019-03-23T05:10:23.392Z,117.00
2019-03-23T05:13:27.984Z,117.67
2019-03-23T05:16:31.704Z,124.70
2019-03-23T05:19:36.155Z,113.97
2019-03-23T05:22:39.977Z,118.20
2019-03-23T05:25:44.103Z,109.37
2019-03-23T05:28:49.207Z,110.70
2019-03-23T05:31:53.284Z,132.40
2019-03-23T05:34:57.342Z,124.47
2019-03-23T05:38:01.064Z,137.63
2019-03-23T05:41:05.678Z,118.23
2019-03-23T05:44:09.410Z,154.53
2019-03-23T05:47:13.530Z,131.87
2019-03-23T05:50:17.242Z,109.67
2019-03-23T05:53:20.974Z,114.33
2019-03-23T05:56:25.474Z,100.07
2019-03-23T05:59:29.200Z,107.67
2019-03-23T06:02:32.942Z,118.20
2019-03-23T06:05:37.386Z,122.93
2019-03-23T06:08:42.788Z,107.30
2019-03-23T06:11:46.510Z,104.53
2019-03-23T06:14:50.218Z,120.30
2019-03-23T06:17:53.926Z,104.50
2019-03-23T06:20:57.919Z,113.97
2019-03-23T06:24:01.663Z,100.37
2019-03-23T06:27:06.974Z,132.57
2019-03-23T06:30:11.450Z,127.10
2019-03-23T06:33:15.186Z,127.47
2019-03-23T06:36:18.892Z,108.03
2019-03-23T06:39:22.620Z,124.23
2019-03-23T06:42:27.450Z,115.70
2019-03-23T06:45:31.162Z,124.40
2019-03-23T06:48:35.177Z,122.40
2019-03-23T06:51:38.876Z,121.90
2019-03-23T06:54:42.616Z,119.73
2019-03-23T06:57:46.359Z,105.93
2019-03-23T07:00:50.072Z,137.00
2019-03-23T07:03:54.656Z,121.37
2019-03-23T07:06:58.385Z,130.50
2019-03-23T07:10:02.214Z,116.63
2019-03-23T07:13:06.841Z,121.13
2019-03-23T07:16:10.919Z,123.87
2019-03-23T07:19:14.991Z,118.37
2019-03-23T07:22:18.719Z,133.30
2019-03-23T07:25:22.443Z,115.03
2019-03-23T07:28:26.931Z,121.17
2019-03-23T07:31:30.640Z,116.07
2019-03-23T07:34:35.776Z,117.33
2019-03-23T07:37:40.912Z,119.47
2019-03-23T07:40:44.636Z,139.40
2019-03-23T07:43:48.354Z,135.27
2019-03-23T07:46:52.054Z,125.23
2019-03-23T07:49:56.552Z,134.70
2019-03-23T07:53:00.571Z,116.50
2019-03-23T07:56:04.791Z,120.93
2019-03-23T07:59:08.544Z,111.03
2019-03-23T08:02:12.606Z,123.67
2019-03-23T08:05:16.599Z,114.43
2019-03-23T08:08:21.851Z,100.47
2019-03-23T08:11:26.332Z,102.90
2019-03-23T08:14:31.482Z,107.97
2019-03-23T08:17:36.564Z,87.20
2019-03-23T08:20:40.672Z,105.17
2019-03-23T08:23:44.931Z,83.40
2019-03-23T08:26:49.135Z,110.90
2019-03-23T08:29:54.689Z,97.47
2019-03-23T08:32:58.423Z,103.80
2019-03-23T08:36:02.209Z,96.70
2019-03-23T08:39:07.918Z,108.73
2019-03-23T08:42:11.940Z,95.50
2019-03-23T08:45:15.928Z,109.57
2019-03-23T08:48:22.807Z,96.13
2019-03-23T08:51:26.860Z,104.83
2019-03-23T08:54:31.673Z,110.20
2019-03-23T08:57:36.990Z,87.73
2019-03-23T09:00:41.167Z,98.03
2019-03-23T09:03:52.401Z,110.40
2019-03-23T09:06:50.899Z,109.23
2019-03-23T09:09:59.440Z,106.37
2019-03-23T09:13:00.809Z,99.33
2019-03-23T09:16:04.525Z,95.87
2019-03-23T09:19:09.792Z,100.40
2019-03-23T09:22:13.887Z,93.90
2019-03-23T09:25:17.945Z,90.37
2019-03-23T09:28:21.786Z,101.10
2019-03-23T09:31:25.899Z,95.60
2019-03-23T09:34:30.071Z,106.33
2019-03-23T09:37:38.299Z,97.03
2019-03-23T09:40:41.195Z,92.83
2019-03-23T09:43:45.192Z,87.07
2019-03-23T09:46:48.902Z,90.63
2019-03-23T09:49:54.343Z,94.53
2019-03-23T09:52:58.071Z,93.97
2019-03-23T09:56:02.900Z,105.43
2019-03-23T09:59:08.634Z,90.57
2019-03-23T10:02:12.669Z,91.07
2019-03-23T10:05:16.402Z,95.53
2019-03-23T10:08:21.441Z,79.10
2019-03-23T10:11:25.624Z,97.57
2019-03-23T10:14:29.702Z,92.27
2019-03-23T10:17:33.423Z,109.60
2019-03-23T10:20:39.223Z,98.03
2019-03-23T10:23:43.359Z,102.33
2019-03-23T10:26:47.087Z,91.47
2019-03-23T10:29:52.713Z,96.37
2019-03-23T10:32:56.880Z,88.13
2019-03-23T10:36:00.619Z,112.63
2019-03-23T10:39:05.669Z,88.93
2019-03-23T10:42:09.726Z,104.93
2019-03-23T10:45:13.855Z,81.50
2019-03-23T10:48:18.259Z,109.87
2019-03-23T10:51:22.377Z,102.63
2019-03-23T10:54:26.113Z,95.53
2019-03-23T10:57:30.696Z,88.87
2019-03-23T11:00:34.904Z,98.70
2019-03-23T11:03:38.740Z,99.47
2019-03-23T11:06:43.246Z,99.07
2019-03-23T11:09:46.962Z,111.80
2019-03-23T11:12:52.140Z,91.33
2019-03-23T11:15:56.255Z,103.47
2019-03-23T11:18:59.976Z,91.17
2019-03-23T11:22:04.431Z,110.23
2019-03-23T11:25:11.835Z,75.90
2019-03-23T11:28:15.875Z,89.43
2019-03-23T11:31:19.970Z,72.83
2019-03-23T11:34:23.688Z,76.43
2019-03-23T11:37:27.797Z,80.67
2019-03-23T11:40:32.818Z,84.03
2019-03-23T11:43:36.517Z,71.17
2019-03-23T11:46:40.336Z,75.83
2019-03-23T11:49:45.499Z,87.73
2019-03-23T11:52:49.249Z,68.43
2019-03-23T11:55:52.980Z,67.47
2019-03-23T11:58:58.295Z,76.53
2019-03-23T12:02:03.619Z,72.33
2019-03-23T12:05:08.440Z,76.93
2019-03-23T12:08:12.833Z,63.90
2019-03-23T12:11:16.622Z,68.73
2019-03-23T12:14:21.068Z,63.20
2019-03-23T12:17:26.491Z,66.20
2019-03-23T12:20:30.188Z,66.93
2019-03-23T12:23:33.928Z,60.33
2019-03-23T12:26:38.024Z,63.87
2019-03-23T12:29:41.770Z,56.10
2019-03-23T12:32:45.565Z,55.57
2019-03-23T12:35:49.373Z,54.60
2019-03-23T12:38:53.771Z,52.23
2019-03-23T12:41:57.867Z,50.53
2019-03-23T12:45:01.578Z,50.93
2019-03-23T12:48:05.999Z,46.13
2019-03-23T12:51:10.107Z,59.57
2019-03-23T12:54:13.837Z,52.30
2019-03-23T12:57:18.859Z,49.17
2019-03-23T13:00:22.632Z,56.50
2019-03-23T13:03:26.378Z,50.57
2019-03-23T13:06:30.408Z,52.73
2019-03-23T13:09:35.540Z,52.47
2019-03-23T13:12:39.698Z,51.30
2019-03-23T13:15:43.768Z,54.43
2019-03-23T13:18:47.859Z,50.17
2019-03-23T13:21:51.878Z,44.13
2019-03-23T13:24:56.018Z,47.23
2019-03-23T13:28:00.439Z,51.43
2019-03-23T13:31:04.188Z,46.90
2019-03-23T13:34:09.051Z,45.43
2019-03-23T13:37:13.213Z,52.73
2019-03-23T13:40:16.919Z,44.93
2019-03-23T13:43:21.075Z,46.97
2019-03-23T13:46:25.193Z,45.07
2019-03-23T13:49:28.898Z,45.97
2019-03-23T13:52:33.824Z,49.87
2019-03-23T13:55:37.540Z,46.43
2019-03-23T13:58:41.261Z,43.50
2019-03-23T14:01:45.044Z,44.47
2019-03-23T14:04:50.280Z,43.37
2019-03-23T14:07:54.244Z,51.40
2019-03-23T14:10:57.974Z,42.17
2019-03-23T14:14:01.704Z,42.43
2019-03-23T14:17:05.430Z,40.63
2019-03-23T14:20:09.734Z,44.33
2019-03-23T14:23:13.849Z,36.13
2019-03-23T14:26:17.590Z,45.80
2019-03-23T14:29:21.298Z,44.27
2019-03-23T14:32:26.832Z,39.90
2019-03-23T14:35:30.540Z,38.37
2019-03-23T14:38:35.029Z,43.77
2019-03-23T14:41:38.768Z,39.63
2019-03-23T14:44:43.207Z,45.33
2019-03-23T14:47:47.326Z,44.33
2019-03-23T14:50:51.023Z,37.80
2019-03-23T14:53:54.804Z,40.53
2019-03-23T14:56:58.896Z,47.13
2019-03-23T15:00:02.829Z,41.33
2019-03-23T15:03:06.885Z,40.23
2019-03-23T15:06:10.613Z,41.80
2019-03-23T15:09:14.340Z,52.70
2019-03-23T15:12:18.060Z,39.37
2019-03-23T15:15:21.791Z,52.43
2019-03-23T15:18:25.508Z,53.93
2019-03-23T15:21:29.212Z,44.83
2019-03-23T15:24:32.929Z,46.93
2019-03-23T15:27:36.660Z,49.60
2019-03-23T15:30:41.121Z,47.13
2019-03-23T15:33:44.947Z,53.67
2019-03-23T15:36:48.655Z,44.40
2019-03-23T15:39:54.820Z,44.37
2019-03-23T15:42:58.527Z,49.70
2019-03-23T15:46:02.293Z,47.93
2019-03-23T15:49:07.776Z,50.83
2019-03-23T15:52:13.032Z,48.10
2019-03-23T15:55:17.131Z,46.50
2019-03-23T15:58:21.879Z,45.40
2019-03-23T16:01:26.039Z,49.93
2019-03-23T16:04:30.561Z,45.97
2019-03-23T16:07:34.274Z,52.97
2019-03-23T16:10:38.396Z,50.10
2019-03-23T16:13:42.490Z,49.57
2019-03-23T16:16:46.967Z,62.83
2019-03-23T16:19:51.471Z,54.27
2019-03-23T16:22:55.199Z,51.63
2019-03-23T16:25:58.937Z,45.80
2019-03-23T16:29:02.738Z,53.97
2019-03-23T16:32:06.506Z,52.03
2019-03-23T16:35:11.629Z,49.27
2019-03-23T16:38:15.664Z,49.63
2019-03-23T16:41:19.684Z,52.33
2019-03-23T16:44:23.838Z,53.23
2019-03-23T16:47:28.626Z,51.83
2019-03-23T16:50:32.343Z,59.00
2019-03-23T16:53:36.503Z,55.57
2019-03-23T16:56:41.041Z,51.87
2019-03-23T16:59:45.131Z,56.47
2019-03-23T17:02:49.609Z,54.97
2019-03-23T17:05:53.623Z,56.77
2019-03-23T17:08:57.691Z,57.63
2019-03-23T17:12:01.752Z,56.93
2019-03-23T17:15:07.226Z,66.80
2019-03-23T17:18:11.588Z,60.77
2019-03-23T17:21:15.607Z,48.30
2019-03-23T17:24:20.526Z,56.47
2019-03-23T17:27:24.575Z,43.87
2019-03-23T17:30:28.382Z,47.90
2019-03-23T17:33:32.399Z,50.60
2019-03-23T17:36:36.570Z,50.70
2019-03-23T17:39:40.668Z,55.13
2019-03-23T17:42:44.405Z,48.80
2019-03-23T17:45:48.451Z,51.93
2019-03-23T17:48:54.920Z,46.40
2019-03-23T17:51:59.438Z,53.53
2019-03-23T17:55:03.251Z,45.20
2019-03-23T17:58:08.222Z,54.20
2019-03-23T18:01:19.273Z,49.10
2019-03-23T18:04:20.796Z,51.23
2019-03-23T18:07:25.958Z,46.60
2019-03-23T18:10:30.114Z,48.50
2019-03-23T18:13:34.248Z,59.30
2019-03-23T18:16:38.336Z,45.37
2019-03-23T18:19:42.427Z,49.87
2019-03-23T18:22:46.140Z,51.90
2019-03-23T18:25:49.857Z,50.27
2019-03-23T18:28:55.220Z,55.33
2019-03-23T18:31:58.974Z,51.43
2019-03-23T18:35:03.351Z,85.17
2019-03-23T18:38:07.583Z,55.27
2019-03-23T18:41:11.651Z,53.53
2019-03-23T18:44:16.336Z,58.93
2019-03-23T18:47:21.180Z,46.60
2019-03-23T18:50:24.891Z,58.93
2019-03-23T18:53:29.488Z,52.33
2019-03-23T18:56:33.218Z,43.97
2019-03-23T18:59:37.384Z,53.90
2019-03-23T19:02:41.133Z,36.83
2019-03-23T19:05:45.931Z,41.17
2019-03-23T19:08:50.003Z,35.03
2019-03-23T19:11:54.007Z,34.07
2019-03-23T19:14:57.712Z,32.60
2019-03-23T19:18:01.829Z,29.93
2019-03-23T19:21:05.535Z,32.90
2019-03-23T19:24:09.586Z,25.07
2019-03-23T19:27:15.549Z,19.47
2019-03-23T19:30:19.914Z,21.40
2019-03-23T19:33:24.060Z,13.90
2019-03-23T19:36:28.160Z,20.13
2019-03-23T19:39:31.888Z,19.10
2019-03-23T19:42:37.514Z,20.10
2019-03-23T19:45:42.342Z,17.13
2019-03-23T19:48:47.693Z,22.97
2019-03-23T19:51:51.410Z,28.13
2019-03-23T19:54:55.543Z,19.40
2019-03-23T19:57:59.695Z,21.37
2019-03-23T20:01:03.411Z,18.33
2019-03-23T20:04:07.852Z,23.77
2019-03-23T20:07:11.601Z,23.30
2019-03-23T20:10:16.811Z,30.10
2019-03-23T20:13:21.220Z,22.50
2019-03-23T20:16:24.937Z,20.97
2019-03-23T20:19:31.606Z,19.60
2019-03-23T20:22:35.726Z,20.87
2019-03-23T20:25:39.924Z,23.00
2019-03-23T20:28:43.870Z,20.30
2019-03-23T20:31:47.959Z,22.10
2019-03-23T20:34:52.647Z,20.70
2019-03-23T20:37:57.164Z,23.90
2019-03-23T20:41:01.274Z,21.90
2019-03-23T20:44:09.563Z,22.80
2019-03-23T20:47:11.647Z,25.00
2019-03-23T20:50:15.716Z,24.63
2019-03-23T20:53:19.741Z,28.17
2019-03-23T20:56:23.805Z,18.90
2019-03-23T20:59:28.229Z,26.00
2019-03-23T21:02:32.449Z,24.67
2019-03-23T21:05:36.156Z,24.97
2019-03-23T21:08:40.963Z,19.77
2019-03-23T21:11:44.678Z,21.13
2019-03-23T21:14:49.402Z,24.60
2019-03-23T21:17:55.614Z,16.50
2019-03-23T21:20:59.319Z,19.13
2019-03-23T21:24:03.459Z,16.40
2019-03-23T21:27:07.592Z,15.00
2019-03-23T21:30:13.553Z,18.77
2019-03-23T21:33:17.685Z,13.40
2019-03-23T21:36:21.382Z,10.47
2019-03-23T21:39:25.571Z,13.30
2019-03-23T21:42:30.485Z,12.23
2019-03-23T21:45:34.198Z,19.20
2019-03-23T21:48:38.252Z,10.00
2019-03-23T21:51:42.304Z,13.50
2019-03-23T21:54:46.337Z,13.10
2019-03-23T21:57:50.451Z,10.87
2019-03-23T22:00:54.279Z,19.80
2019-03-23T22:03:58.017Z,19.50
2019-03-23T22:07:01.742Z,12.90
2019-03-23T22:10:06.647Z,10.63
2019-03-23T22:13:12.367Z,10.13
2019-03-23T22:16:16.383Z,8.97
2019-03-23T22:19:20.109Z,10.70
2019-03-23T22:22:24.194Z,20.43
2019-03-23T22:25:28.227Z,20.63
2019-03-23T22:28:32.254Z,11.47
2019-03-23T22:31:36.355Z,10.33
2019-03-23T22:34:40.486Z,10.50
2019-03-23T22:37:44.643Z,9.70
2019-03-23T22:40:48.354Z,11.73
2019-03-23T22:43:52.086Z,9.70
2019-03-23T22:46:55.795Z,6.40
2019-03-23T22:50:01.649Z,4.50
2019-03-23T22:53:07.191Z,8.87
2019-03-23T22:56:11.245Z,11.23
2019-03-23T22:59:15.499Z,10.97
2019-03-23T23:02:19.446Z,17.87
2019-03-23T23:05:23.164Z,11.77
2019-03-23T23:08:26.871Z,12.23
2019-03-23T23:11:30.591Z,10.50
2019-03-23T23:14:34.722Z,11.00
2019-03-23T23:17:38.589Z,11.23
2019-03-23T23:20:42.727Z,11.47
2019-03-23T23:23:46.449Z,8.03
2019-03-23T23:26:50.541Z,7.90
2019-03-23T23:29:54.679Z,12.73
2019-03-23T23:32:58.605Z,13.43
2019-03-23T23:36:02.528Z,11.47
2019-03-23T23:39:07.704Z,14.37
2019-03-23T23:42:12.270Z,10.90
2019-03-23T23:45:16.616Z,15.13
2019-03-23T23:48:20.688Z,20.60
2019-03-23T23:51:25.167Z,10.87
2019-03-23T23:54:28.896Z,8.87
2019-03-23T23:57:34.503Z,11.50
